Time;durP1;ratioP1;P1;durP2;ratioP2;P2;SDS_P1;SDS_P2;PMS_P1;PMS_P2;Temp;Humidity;BMP_temperature;BMP_pressure;BME280_temperature;BME280_humidity;BME280_pressure;Samples;Min_cycle;Max_cycle;Signal;HPM_P1;HPM_P2
2021/08/29 00:02:13;;;;;;;0.40;0.30;;;;;;;16.91;100.00;100382.06;5037903;28;20472;-79
2021/08/29 00:04:41;;;;;;;0.40;0.23;;;;;;;16.76;100.00;100381.06;5036146;28;20520;-78
2021/08/29 00:07:07;;;;;;;0.40;0.30;;;;;;;16.85;100.00;100374.31;5032029;28;21213;-78
2021/08/29 00:09:35;;;;;;;2.30;1.33;;;;;;;16.69;100.00;100370.72;5037600;28;20462;-78
2021/08/29 00:12:07;;;;;;;0.40;0.20;;;;;;;16.80;100.00;100360.28;5029462;28;21022;-79
2021/08/29 00:14:34;;;;;;;0.40;0.30;;;;;;;16.98;100.00;100358.41;5032164;28;20932;-79
2021/08/29 00:17:01;;;;;;;0.40;0.30;;;;;;;16.82;100.00;100363.75;5048340;28;20525;-79
2021/08/29 00:19:28;;;;;;;0.37;0.20;;;;;;;16.92;100.00;100350.72;5044593;28;20499;-79
2021/08/29 00:21:55;;;;;;;0.40;0.20;;;;;;;16.82;100.00;100358.38;5054688;28;20859;-79
2021/08/29 00:24:22;;;;;;;0.40;0.20;;;;;;;16.78;100.00;100359.50;5027772;28;20491;-78
2021/08/29 00:26:49;;;;;;;0.40;0.23;;;;;;;16.49;100.00;100358.31;5029714;28;20450;-78
2021/08/29 00:29:16;;;;;;;1.60;1.13;;;;;;;16.68;100.00;100344.81;5055033;28;20447;-78
2021/08/29 00:31:43;;;;;;;0.40;0.20;;;;;;;16.75;100.00;100347.13;5054462;28;20939;-78
2021/08/29 00:34:10;;;;;;;0.50;0.50;;;;;;;16.57;100.00;100339.97;5036483;28;20445;-78
2021/08/29 00:36:37;;;;;;;0.40;0.20;;;;;;;16.74;100.00;100345.38;5054191;28;20485;-78
2021/08/29 00:39:04;;;;;;;0.40;0.20;;;;;;;16.68;100.00;100342.13;5036586;28;21051;-78
2021/08/29 00:41:32;;;;;;;0.40;0.30;;;;;;;16.74;100.00;100344.50;5024674;28;20562;-78
2021/08/29 00:44:01;;;;;;;0.40;0.20;;;;;;;16.84;100.00;100335.88;5038209;28;20518;-78
2021/08/29 00:46:28;;;;;;;0.40;0.20;;;;;;;17.01;100.00;100342.16;5055245;28;20438;-78
2021/08/29 00:48:55;;;;;;;0.40;0.20;;;;;;;16.85;100.00;100348.34;5036823;28;20873;-79
2021/08/29 00:51:22;;;;;;;0.40;0.20;;;;;;;16.82;100.00;100343.13;5023238;28;20545;-78
2021/08/29 00:53:53;;;;;;;0.40;0.20;;;;;;;16.70;100.00;100337.56;5036230;28;20501;-78
2021/08/29 00:56:21;;;;;;;2.20;0.60;;;;;;;16.63;100.00;100334.31;5033850;28;20444;-78
2021/08/29 00:58:50;;;;;;;0.40;0.20;;;;;;;16.81;100.00;100338.72;5047444;28;20494;-78
2021/08/29 01:01:18;;;;;;;0.40;0.20;;;;;;;16.71;100.00;100339.28;5034771;28;20482;-78
2021/08/29 01:03:49;;;;;;;0.40;0.20;;;;;;;16.69;100.00;100333.13;5053418;28;20455;-78
2021/08/29 01:06:25;;;;;;;0.40;0.30;;;;;;;16.88;100.00;100334.78;5036054;28;20944;-78
2021/08/29 01:08:58;;;;;;;0.40;0.20;;;;;;;16.78;100.00;100330.84;5053376;28;20878;-78
2021/08/29 01:11:26;;;;;;;0.43;0.43;;;;;;;16.68;100.00;100329.59;5034482;28;20482;-78
2021/08/29 01:14:06;;;;;;;0.40;0.20;;;;;;;16.74;100.00;100323.03;5022071;28;20455;-78
2021/08/29 01:16:36;;;;;;;0.40;0.20;;;;;;;16.99;100.00;100331.47;5023023;28;20479;-78
2021/08/29 01:19:12;;;;;;;0.40;0.27;;;;;;;16.72;100.00;100331.19;5051007;28;20487;-78
2021/08/29 01:21:40;;;;;;;0.40;0.20;;;;;;;16.63;100.00;100328.94;5038781;28;20895;-78
2021/08/29 01:24:12;;;;;;;0.40;0.20;;;;;;;16.97;100.00;100327.16;5023647;28;20514;-78
2021/08/29 01:27:05;;;;;;;0.40;0.20;;;;;;;16.85;100.00;100326.00;5035076;28;20810;-78
2021/08/29 01:29:32;;;;;;;1.17;1.17;;;;;;;16.97;100.00;100317.28;5052451;28;20790;-78
2021/08/29 01:32:03;;;;;;;0.40;0.20;;;;;;;16.99;100.00;100322.56;5021684;28;20442;-78
2021/08/29 01:34:31;;;;;;;0.40;0.20;;;;;;;16.78;100.00;100305.81;5034944;28;20981;-78
2021/08/29 01:37:00;;;;;;;0.40;0.20;;;;;;;16.99;100.00;100327.94;5034972;28;20435;-77
2021/08/29 01:39:28;;;;;;;0.33;0.20;;;;;;;16.96;100.00;100333.47;5052163;28;20992;-77
2021/08/29 01:41:55;;;;;;;0.40;0.30;;;;;;;16.96;100.00;100333.47;5027237;28;20935;-77
2021/08/29 01:44:23;;;;;;;0.40;0.20;;;;;;;16.90;100.00;100333.81;5029470;28;20482;-77
2021/08/29 01:46:51;;;;;;;0.40;0.20;;;;;;;17.05;100.00;100332.97;5034859;28;20477;-77
2021/08/29 01:49:18;;;;;;;0.40;0.20;;;;;;;16.84;100.00;100337.69;5029905;28;20458;-76
2021/08/29 01:51:45;;;;;;;0.40;0.30;;;;;;;17.05;100.00;100335.66;5034790;28;20819;-77
2021/08/29 01:54:12;;;;;;;0.40;0.20;;;;;;;16.92;100.00;100321.16;5052280;28;21036;-76
2021/08/29 01:57:03;;;;;;;0.40;0.20;;;;;;;16.81;100.00;100327.97;5025537;28;20863;-77
2021/08/29 01:59:31;;;;;;;0.40;0.20;;;;;;;16.87;100.00;100333.03;5027094;28;20549;-76
2021/08/29 02:01:58;;;;;;;0.40;0.20;;;;;;;17.01;100.00;100334.09;5044819;28;20983;-77
2021/08/29 02:04:27;;;;;;;0.40;0.20;;;;;;;16.96;100.00;100330.78;5027704;28;20460;-77
2021/08/29 02:07:06;;;;;;;0.40;0.20;;;;;;;16.87;100.00;100330.34;5027538;28;20496;-77
2021/08/29 02:09:34;;;;;;;2.30;1.00;;;;;;;16.62;100.00;100337.94;5034200;28;21013;-77
2021/08/29 02:12:01;;;;;;;0.40;0.20;;;;;;;16.66;100.00;100327.91;5034214;28;20459;-77
2021/08/29 02:14:39;;;;;;;0.40;0.20;;;;;;;16.69;100.00;100335.81;5025343;28;20491;-77
2021/08/29 02:17:10;;;;;;;0.40;0.20;;;;;;;16.64;100.00;100322.63;5035381;28;20450;-77
2021/08/29 02:19:39;;;;;;;0.40;0.20;;;;;;;16.63;100.00;100331.63;5034011;28;20563;-76
2021/08/29 02:22:07;;;;;;;0.40;0.20;;;;;;;16.72;100.00;100327.59;5046846;28;20452;-77
2021/08/29 02:24:34;;;;;;;0.40;0.20;;;;;;;16.67;100.00;100329.63;5014884;28;20550;-76
2021/08/29 02:27:01;;;;;;;0.63;0.63;;;;;;;16.59;100.00;100322.88;5049984;28;20455;-76
2021/08/29 02:29:28;;;;;;;0.40;0.20;;;;;;;16.68;100.00;100320.66;5034831;28;20881;-77
2021/08/29 02:31:55;;;;;;;0.50;0.47;;;;;;;16.59;100.00;100324.69;5037951;28;20482;-77
2021/08/29 02:34:22;;;;;;;0.40;0.20;;;;;;;16.56;100.00;100333.75;5025461;28;20451;-77
2021/08/29 02:36:52;;;;;;;0.40;0.20;;;;;;;16.53;100.00;100328.53;5054081;28;20473;-77
2021/08/29 02:39:20;;;;;;;1.53;1.43;;;;;;;16.49;100.00;100328.78;5055109;28;20498;-76
2021/08/29 02:41:50;;;;;;;0.40;0.20;;;;;;;16.52;100.00;100329.50;5055318;28;20447;-77
2021/08/29 02:44:19;;;;;;;1.90;0.50;;;;;;;16.45;100.00;100324.56;5053016;28;20509;-76
2021/08/29 02:46:49;;;;;;;0.40;0.30;;;;;;;16.52;100.00;100342.91;5054846;28;20524;-76
2021/08/29 02:49:21;;;;;;;0.40;0.20;;;;;;;16.43;100.00;100329.09;5037307;28;20512;-77
2021/08/29 02:51:53;;;;;;;0.40;0.20;;;;;;;16.39;100.00;100320.34;5037477;28;21025;-77
2021/08/29 02:54:20;;;;;;;0.40;0.27;;;;;;;16.45;100.00;100335.28;5041474;28;20514;-77
2021/08/29 02:56:49;;;;;;;0.97;0.97;;;;;;;16.45;100.00;100327.22;5048374;28;20455;-76
2021/08/29 02:59:17;;;;;;;0.43;0.30;;;;;;;16.44;100.00;100309.38;5051509;28;20482;-77
2021/08/29 03:01:44;;;;;;;0.40;0.20;;;;;;;16.58;100.00;100329.19;5054616;28;20494;-77
2021/08/29 03:04:12;;;;;;;0.40;0.20;;;;;;;16.70;100.00;100319.63;5041910;28;20533;-77
2021/08/29 03:06:39;;;;;;;0.40;0.20;;;;;;;16.43;100.00;100321.91;5055453;28;20451;-77
2021/08/29 03:09:07;;;;;;;0.40;0.20;;;;;;;16.58;100.00;100328.28;5037412;28;20947;-77
2021/08/29 03:11:34;;;;;;;0.40;0.30;;;;;;;16.60;100.00;100323.75;5055974;28;20486;-78
2021/08/29 03:14:01;;;;;;;0.33;0.20;;;;;;;16.56;100.00;100314.97;5039235;28;20479;-78
2021/08/29 03:16:30;;;;;;;0.40;0.30;;;;;;;16.55;100.00;100313.22;5028802;28;20451;-78
2021/08/29 03:18:59;;;;;;;0.40;0.40;;;;;;;16.46;100.00;100315.53;5055366;28;20502;-78
2021/08/29 03:21:26;;;;;;;0.40;0.30;;;;;;;16.51;100.00;100310.78;5039394;28;20479;-78
2021/08/29 03:23:54;;;;;;;0.40;0.20;;;;;;;16.26;100.00;100304.03;5031799;28;20504;-78
2021/08/29 03:26:21;;;;;;;0.40;0.20;;;;;;;16.34;100.00;100309.00;5038879;28;20963;-78
2021/08/29 03:28:49;;;;;;;0.40;0.20;;;;;;;16.37;100.00;100305.28;5038562;28;20447;-78
2021/08/29 03:31:16;;;;;;;0.40;0.20;;;;;;;16.23;100.00;100303.31;5055722;28;20994;-78
2021/08/29 03:33:45;;;;;;;0.40;0.20;;;;;;;16.21;100.00;100306.09;5026681;28;20447;-78
2021/08/29 03:36:19;;;;;;;0.40;0.20;;;;;;;16.22;100.00;100304.28;5047659;28;20524;-78
2021/08/29 03:38:49;;;;;;;0.40;0.23;;;;;;;16.14;100.00;100295.75;5041886;28;20528;-78
2021/08/29 03:41:18;;;;;;;0.93;0.93;;;;;;;16.09;100.00;100297.78;5052642;28;20471;-78
2021/08/29 03:43:46;;;;;;;10.03;2.23;;;;;;;16.18;100.00;100298.19;5025197;28;20474;-78
2021/08/29 03:46:15;;;;;;;0.40;0.30;;;;;;;16.05;100.00;100294.41;5037158;28;20454;-78
2021/08/29 03:48:45;;;;;;;0.30;0.20;;;;;;;15.98;100.00;100301.88;5037103;28;20462;-78
2021/08/29 03:51:15;;;;;;;0.40;0.20;;;;;;;16.03;100.00;100304.31;5055007;28;20520;-78
2021/08/29 03:53:43;;;;;;;0.40;0.30;;;;;;;16.11;100.00;100294.09;5027575;28;20945;-78
2021/08/29 03:56:11;;;;;;;0.40;0.20;;;;;;;16.05;100.00;100299.78;5052107;28;20451;-78
2021/08/29 03:58:42;;;;;;;2.10;2.00;;;;;;;16.18;100.00;100290.16;5054185;28;21021;-78
2021/08/29 04:01:09;;;;;;;0.40;0.20;;;;;;;16.32;100.00;100297.50;5036303;28;20902;-78
2021/08/29 04:03:36;;;;;;;0.40;0.20;;;;;;;16.09;100.00;100297.78;5029247;28;20456;-78
2021/08/29 04:06:04;;;;;;;0.40;0.20;;;;;;;16.37;100.00;100308.84;5053283;28;20951;-78
2021/08/29 04:08:38;;;;;;;0.40;0.20;;;;;;;16.42;100.00;100311.25;5026609;28;20513;-78
2021/08/29 04:11:08;;;;;;;0.40;0.20;;;;;;;16.38;100.00;100312.38;5041253;28;20989;-78
2021/08/29 04:13:36;;;;;;;0.40;0.20;;;;;;;16.31;100.00;100303.81;5037317;28;20439;-79
2021/08/29 04:16:04;;;;;;;0.37;0.20;;;;;;;16.23;100.00;100309.56;5036850;28;20435;-78
2021/08/29 04:18:39;;;;;;;0.40;0.20;;;;;;;16.15;100.00;100306.38;5034783;28;20517;-78
2021/08/29 04:21:07;;;;;;;0.40;0.20;;;;;;;16.34;100.00;100300.94;5026147;28;20991;-78
2021/08/29 04:23:34;;;;;;;0.40;0.20;;;;;;;16.20;100.00;100299.00;5033863;28;20471;-78
2021/08/29 04:26:01;;;;;;;1.07;0.93;;;;;;;16.28;100.00;100298.56;5017775;28;20953;-78
2021/08/29 04:28:28;;;;;;;0.40;0.20;;;;;;;16.29;100.00;100308.34;5032710;28;21000;-78
2021/08/29 04:30:57;;;;;;;0.60;0.53;;;;;;;15.94;100.00;100304.81;5026716;28;20471;-78
2021/08/29 04:33:26;;;;;;;0.33;0.20;;;;;;;15.97;100.00;100300.16;5023087;28;20443;-78
2021/08/29 04:35:54;;;;;;;0.40;0.30;;;;;;;16.25;100.00;100302.28;5036396;28;20496;-78
2021/08/29 04:38:21;;;;;;;0.40;0.20;;;;;;;15.91;100.00;100305.84;5018806;28;20452;-78
2021/08/29 04:40:48;;;;;;;0.40;0.20;;;;;;;15.92;100.00;100304.03;5035326;28;20552;-78
2021/08/29 04:43:15;;;;;;;0.40;0.20;;;;;;;16.13;100.00;100315.47;5038559;28;20458;-79
2021/08/29 04:45:42;;;;;;;0.40;0.20;;;;;;;16.24;100.00;100313.09;5053781;28;20514;-79
2021/08/29 04:48:09;;;;;;;0.40;0.20;;;;;;;16.09;100.00;100290.63;5035782;28;20525;-78
2021/08/29 04:50:36;;;;;;;0.40;0.20;;;;;;;16.15;100.00;100314.44;5035680;28;20471;-78
2021/08/29 04:53:03;;;;;;;0.40;0.40;;;;;;;16.10;100.00;100311.13;5053798;28;20447;-78
2021/08/29 04:55:30;;;;;;;0.87;0.87;;;;;;;16.14;100.00;100310.00;5036420;28;20484;-78
2021/08/29 04:57:57;;;;;;;0.60;0.60;;;;;;;15.93;100.00;100306.63;5036539;28;20928;-78
2021/08/29 05:00:24;;;;;;;0.40;0.20;;;;;;;15.99;100.00;100311.66;5035574;28;21043;-77
2021/08/29 05:02:51;;;;;;;0.40;0.20;;;;;;;15.99;100.00;100308.13;5033484;28;20541;-78
2021/08/29 05:05:19;;;;;;;0.40;0.20;;;;;;;15.84;100.00;100312.44;5052851;28;20451;-78
2021/08/29 05:07:46;;;;;;;0.40;0.20;;;;;;;16.07;100.00;100318.47;5026534;28;20476;-78
2021/08/29 05:10:13;;;;;;;0.33;0.20;;;;;;;16.10;100.00;100316.50;5048895;28;20506;-78
2021/08/29 05:12:40;;;;;;;0.50;0.50;;;;;;;16.06;100.00;100319.41;5028322;28;20448;-78
2021/08/29 05:15:07;;;;;;;0.40;0.20;;;;;;;16.21;100.00;100327.53;5029192;28;20459;-78
2021/08/29 05:17:34;;;;;;;0.30;0.20;;;;;;;15.89;100.00;100328.28;5029006;28;20505;-78
2021/08/29 05:20:01;;;;;;;0.30;0.20;;;;;;;15.82;100.00;100322.38;5029059;28;20495;-78
2021/08/29 05:22:28;;;;;;;0.37;0.20;;;;;;;15.80;100.00;100329.63;5026865;28;20853;-78
2021/08/29 05:24:55;;;;;;;0.40;0.27;;;;;;;16.10;100.00;100329.91;5051395;28;20954;-78
2021/08/29 05:27:22;;;;;;;0.30;0.20;;;;;;;16.03;100.00;100331.13;5042207;28;20478;-78
2021/08/29 05:29:49;;;;;;;0.40;0.20;;;;;;;16.09;100.00;100319.25;5034999;28;20896;-78
2021/08/29 05:32:16;;;;;;;0.40;0.20;;;;;;;16.16;100.00;100326.88;5050459;28;20520;-78
2021/08/29 05:34:43;;;;;;;0.40;0.30;;;;;;;16.03;100.00;100327.59;5025013;28;20451;-78
2021/08/29 05:37:09;;;;;;;0.30;0.20;;;;;;;15.98;100.00;100334.06;5032288;28;20959;-77
2021/08/29 05:39:36;;;;;;;1.83;1.73;;;;;;;15.97;100.00;100326.09;5033298;28;20507;-78
2021/08/29 05:42:03;;;;;;;0.30;0.20;;;;;;;15.97;100.00;100328.78;5033989;28;20455;-77
2021/08/29 05:44:31;;;;;;;0.63;0.63;;;;;;;15.93;100.00;100336.13;5052350;28;20446;-78
2021/08/29 05:46:58;;;;;;;0.30;0.20;;;;;;;16.00;100.00;100323.25;5029694;28;20504;-78
2021/08/29 05:49:25;;;;;;;0.40;0.30;;;;;;;16.10;100.00;100319.16;5044280;28;20801;-78
2021/08/29 05:51:52;;;;;;;0.40;0.20;;;;;;;16.12;100.00;100330.69;5054077;28;20508;-78
2021/08/29 05:54:18;;;;;;;0.40;0.20;;;;;;;16.23;100.00;100330.16;5026521;28;20443;-78
2021/08/29 05:56:46;;;;;;;0.40;0.20;;;;;;;16.30;100.00;100334.22;5047363;28;20929;-78
2021/08/29 05:59:13;;;;;;;0.30;0.20;;;;;;;16.25;100.00;100329.09;5018032;28;20534;-78
2021/08/29 06:01:40;;;;;;;0.40;0.30;;;;;;;16.17;100.00;100335.81;5049477;28;20493;-78
2021/08/29 06:04:07;;;;;;;0.40;0.20;;;;;;;16.24;100.00;100334.56;5023026;28;20941;-77
2021/08/29 06:06:34;;;;;;;0.40;0.20;;;;;;;16.30;100.00;100335.09;5041445;28;20498;-78
2021/08/29 06:09:02;;;;;;;0.40;0.20;;;;;;;16.22;100.00;100331.09;5026776;28;21016;-78
2021/08/29 06:11:29;;;;;;;0.40;0.20;;;;;;;16.42;100.00;100322.00;5032748;28;21041;-79
2021/08/29 06:13:56;;;;;;;0.57;0.57;;;;;;;16.26;100.00;100328.16;5043011;28;20959;-78
2021/08/29 06:16:24;;;;;;;0.40;0.20;;;;;;;16.21;100.00;100329.34;5028679;28;20455;-78
2021/08/29 06:18:51;;;;;;;0.30;0.20;;;;;;;16.32;100.00;100326.13;5025562;28;20447;-78
2021/08/29 06:21:18;;;;;;;0.30;0.20;;;;;;;16.15;100.00;100319.78;5038544;28;20961;-78
2021/08/29 06:23:45;;;;;;;0.30;0.20;;;;;;;16.18;100.00;100319.66;5047183;28;20455;-78
2021/08/29 06:26:13;;;;;;;0.30;0.20;;;;;;;16.05;100.00;100328.41;5033768;28;20496;-78
2021/08/29 06:28:40;;;;;;;2.00;2.00;;;;;;;16.16;100.00;100323.34;5037126;28;20439;-78
2021/08/29 06:31:07;;;;;;;0.40;0.20;;;;;;;16.43;100.00;100321.06;5047293;28;20468;-78
2021/08/29 06:33:33;;;;;;;1.13;0.53;;;;;;;16.48;100.00;100317.19;5036956;28;20955;-78
2021/08/29 06:36:00;;;;;;;0.40;0.20;;;;;;;16.29;100.00;100313.72;5047791;28;20564;-78
2021/08/29 06:38:27;;;;;;;0.40;0.20;;;;;;;16.41;100.00;100312.22;5050056;28;20971;-78
2021/08/29 06:40:54;;;;;;;0.30;0.20;;;;;;;16.22;100.00;100310.50;5036516;28;20490;-78
2021/08/29 06:43:21;;;;;;;0.40;0.20;;;;;;;16.39;100.00;100319.47;5032350;28;20478;-78
2021/08/29 06:45:48;;;;;;;0.37;0.20;;;;;;;16.42;100.00;100322.88;5049072;28;20455;-78
2021/08/29 06:48:15;;;;;;;0.40;0.27;;;;;;;16.28;100.00;100320.91;5046770;28;20450;-78
2021/08/29 06:50:42;;;;;;;1.03;1.03;;;;;;;16.42;100.00;100320.19;5029706;28;20467;-78
2021/08/29 06:53:09;;;;;;;0.37;0.27;;;;;;;16.28;100.00;100310.16;5035686;28;20447;-78
2021/08/29 06:55:36;;;;;;;0.40;0.40;;;;;;;16.23;100.00;100324.78;5031692;28;20450;-78
2021/08/29 06:58:03;;;;;;;7.63;0.70;;;;;;;16.05;100.00;100326.59;5022249;28;20451;-79
2021/08/29 07:00:30;;;;;;;0.40;0.20;;;;;;;16.24;100.00;100326.50;5033236;28;20837;-78
2021/08/29 07:02:57;;;;;;;0.40;0.30;;;;;;;16.28;100.00;100320.91;5034268;28;20847;-79
2021/08/29 07:05:26;;;;;;;19.07;1.03;;;;;;;16.27;100.00;100323.66;5021498;28;20459;-79
2021/08/29 07:07:53;;;;;;;0.40;0.20;;;;;;;16.19;100.00;100321.41;5031025;28;20512;-79
2021/08/29 07:10:20;;;;;;;0.40;0.30;;;;;;;16.26;100.00;100319.25;5035925;28;20478;-79
2021/08/29 07:12:47;;;;;;;0.30;0.20;;;;;;;16.21;100.00;100329.34;5033037;28;20488;-79
2021/08/29 07:15:14;;;;;;;0.40;0.20;;;;;;;16.17;100.00;100325.97;5049488;28;20455;-79
2021/08/29 07:17:41;;;;;;;0.40;0.20;;;;;;;16.18;100.00;100324.16;5031425;28;20451;-79
2021/08/29 07:20:09;;;;;;;0.40;0.20;;;;;;;16.32;100.00;100326.13;5033083;28;20987;-79
2021/08/29 07:22:35;;;;;;;0.40;0.30;;;;;;;16.32;100.00;100302.00;5048504;28;20957;-79
2021/08/29 07:25:03;;;;;;;0.40;0.20;;;;;;;16.39;100.00;100328.41;5047417;28;20804;-78
2021/08/29 07:27:30;;;;;;;0.40;0.20;;;;;;;16.36;100.00;100325.00;5031697;28;20471;-80
2021/08/29 07:29:56;;;;;;;0.80;0.80;;;;;;;16.29;100.00;100324.44;5034274;28;20471;-79
2021/08/29 07:32:23;;;;;;;0.40;0.20;;;;;;;16.34;100.00;100319.72;5032113;28;20455;-79
2021/08/29 07:34:50;;;;;;;0.40;0.30;;;;;;;16.40;100.00;100314.03;5026124;28;20451;-80
2021/08/29 07:37:17;;;;;;;0.50;0.50;;;;;;;16.24;100.00;100313.97;5031448;28;20470;-79
2021/08/29 07:39:44;;;;;;;0.40;0.30;;;;;;;16.13;100.00;100316.31;5050802;28;20567;-77
2021/08/29 07:42:11;;;;;;;0.30;0.20;;;;;;;16.19;100.00;100316.03;5036376;28;20459;-77
2021/08/29 07:44:39;;;;;;;1.13;1.13;;;;;;;16.23;100.00;100312.22;5047163;28;20565;-77
2021/08/29 07:47:05;;;;;;;0.40;0.30;;;;;;;16.24;100.00;100311.28;5049185;28;20971;-78
2021/08/29 07:49:32;;;;;;;0.40;0.27;;;;;;;16.28;100.00;100318.22;5030125;28;20534;-77
2021/08/29 07:51:59;;;;;;;0.97;0.97;;;;;;;16.34;100.00;100319.72;5048733;28;20524;-77
2021/08/29 07:54:26;;;;;;;0.40;0.20;;;;;;;16.24;100.00;100303.25;5047478;28;20455;-78
2021/08/29 07:56:53;;;;;;;0.50;0.47;;;;;;;16.18;100.00;100311.63;5046224;28;20486;-77
2021/08/29 07:59:20;;;;;;;0.40;0.20;;;;;;;16.19;100.00;100301.75;5049358;28;20520;-78
2021/08/29 08:01:47;;;;;;;0.37;0.20;;;;;;;16.23;100.00;100311.38;5029775;28;20898;-77
2021/08/29 08:04:14;;;;;;;1.80;1.77;;;;;;;16.35;100.00;100304.50;5021268;28;20455;-77
2021/08/29 08:06:41;;;;;;;0.40;0.20;;;;;;;16.36;100.00;100306.22;5044796;28;20524;-77
2021/08/29 08:09:08;;;;;;;0.40;0.20;;;;;;;16.31;100.00;100314.53;5033877;28;20962;-77
2021/08/29 08:11:35;;;;;;;0.30;0.20;;;;;;;16.28;100.00;100314.66;5033974;28;20520;-77
2021/08/29 08:14:02;;;;;;;0.40;0.30;;;;;;;16.24;100.00;100305.91;5027767;28;21002;-77
2021/08/29 08:16:29;;;;;;;0.30;0.20;;;;;;;16.19;100.00;100307.13;5050653;28;20462;-77
2021/08/29 08:18:56;;;;;;;0.30;0.20;;;;;;;16.23;100.00;100306.88;5042166;28;20459;-77
2021/08/29 08:21:23;;;;;;;0.40;0.20;;;;;;;16.33;100.00;100301.91;5022817;28;20492;-77
2021/08/29 08:23:50;;;;;;;0.33;0.20;;;;;;;16.17;100.00;100299.16;5037919;28;20447;-77
2021/08/29 08:26:17;;;;;;;0.40;0.20;;;;;;;16.31;100.00;100319.91;5040154;28;20803;-78
2021/08/29 08:28:44;;;;;;;0.60;0.60;;;;;;;16.24;100.00;100321.16;5040319;28;20459;-77
2021/08/29 08:31:11;;;;;;;0.60;0.60;;;;;;;16.35;100.00;100308.06;5023285;28;20511;-77
2021/08/29 08:33:38;;;;;;;1.90;1.90;;;;;;;16.37;100.00;100321.38;5032353;28;20527;-77
2021/08/29 08:36:05;;;;;;;0.40;0.40;;;;;;;16.39;100.00;100306.06;5046165;28;21122;-77
2021/08/29 08:38:32;;;;;;;4.00;0.80;;;;;;;16.25;100.00;100321.06;5038973;28;21230;-77
2021/08/29 08:40:59;;;;;;;0.30;0.20;;;;;;;16.26;100.00;100322.78;5040329;28;20905;-77
2021/08/29 08:43:26;;;;;;;0.50;0.40;;;;;;;16.29;100.00;100324.44;5028798;28;20472;-77
2021/08/29 08:45:53;;;;;;;0.80;0.80;;;;;;;16.28;100.00;100328.94;5040678;28;20967;-77
2021/08/29 08:48:21;;;;;;;0.40;0.20;;;;;;;16.37;100.00;100324.94;5025982;28;20482;-77
2021/08/29 08:50:51;;;;;;;0.40;0.30;;;;;;;16.45;100.00;100316.50;5052827;28;20889;-77
2021/08/29 08:53:22;;;;;;;0.40;0.40;;;;;;;16.52;100.00;100324.13;5024432;28;20438;-77
2021/08/29 08:55:50;;;;;;;0.30;0.20;;;;;;;16.27;100.00;100323.66;5034865;28;20936;-76
2021/08/29 08:58:18;;;;;;;2.50;2.20;;;;;;;16.32;100.00;100331.50;5050633;28;20463;-76
2021/08/29 09:00:45;;;;;;;2.33;1.80;;;;;;;16.17;100.00;100319.72;5031777;28;20601;-76
2021/08/29 09:03:15;;;;;;;0.70;0.70;;;;;;;16.27;100.00;100315.63;5051023;28;20915;-77
2021/08/29 09:05:42;;;;;;;0.50;0.50;;;;;;;16.22;100.00;100307.81;5046609;28;20470;-76
2021/08/29 09:08:09;;;;;;;0.40;0.40;;;;;;;16.43;100.00;100321.06;5051669;28;20492;-77
2021/08/29 09:10:36;;;;;;;1.70;1.07;;;;;;;16.42;100.00;100317.50;5048807;28;21030;-77
2021/08/29 09:13:05;;;;;;;3.07;2.27;;;;;;;16.39;100.00;100327.53;5048367;28;20455;-77
2021/08/29 09:15:33;;;;;;;0.33;0.20;;;;;;;16.39;100.00;100317.66;5037834;28;20450;-76
2021/08/29 09:18:01;;;;;;;1.90;1.80;;;;;;;16.41;100.00;100331.88;5050987;28;20454;-77
2021/08/29 09:20:30;;;;;;;0.50;0.50;;;;;;;16.41;100.00;100337.22;5045390;28;20484;-79
2021/08/29 09:23:03;;;;;;;0.30;0.20;;;;;;;16.38;100.00;100326.66;5027604;28;20446;-78
2021/08/29 09:25:33;;;;;;;0.60;0.60;;;;;;;16.49;100.00;100328.78;5050719;28;20817;-77
2021/08/29 09:28:02;;;;;;;1.73;1.60;;;;;;;16.40;100.00;100335.50;5041444;28;20529;-77
2021/08/29 09:30:31;;;;;;;0.60;0.60;;;;;;;16.44;100.00;100330.84;5051043;28;20466;-77
2021/08/29 09:33:03;;;;;;;1.80;1.13;;;;;;;16.48;100.00;100332.44;5049075;28;20953;-78
2021/08/29 09:35:32;;;;;;;0.90;0.90;;;;;;;16.52;100.00;100337.56;5033931;28;20494;-77
2021/08/29 09:38:01;;;;;;;0.37;0.30;;;;;;;16.50;100.00;100328.72;5047396;28;20451;-77
2021/08/29 09:40:30;;;;;;;0.50;0.50;;;;;;;16.42;100.00;100335.41;5036260;28;20486;-77
2021/08/29 09:43:00;;;;;;;0.90;0.90;;;;;;;16.52;100.00;100321.44;5029650;28;20845;-77
2021/08/29 09:45:35;;;;;;;0.47;0.47;;;;;;;16.50;100.00;100333.22;5045704;28;20837;-77
2021/08/29 09:48:08;;;;;;;0.50;0.50;;;;;;;16.51;100.00;100330.44;5024954;28;20493;-77
2021/08/29 09:50:38;;;;;;;0.40;0.20;;;;;;;16.58;100.00;100331.88;5054799;28;20479;-77
2021/08/29 09:53:16;;;;;;;0.40;0.40;;;;;;;16.52;100.00;100318.75;5055652;28;20450;-77
2021/08/29 09:55:45;;;;;;;0.30;0.20;;;;;;;16.62;100.00;100318.28;5051250;28;20944;-77
2021/08/29 09:58:33;;;;;;;0.83;0.83;;;;;;;16.76;100.00;100321.13;5047221;28;20832;-77
2021/08/29 10:01:11;;;;;;;0.73;0.73;;;;;;;16.73;100.00;100321.31;5052299;28;21294;-77
2021/08/29 10:03:50;;;;;;;4.10;1.43;;;;;;;16.67;100.00;100314.44;5045060;28;20513;-77
2021/08/29 10:06:29;;;;;;;0.40;0.20;;;;;;;16.79;100.00;100310.22;5051843;28;20926;-77
2021/08/29 10:08:58;;;;;;;5.63;1.13;;;;;;;16.71;100.00;100309.75;5034374;28;21062;-77
2021/08/29 10:11:27;;;;;;;0.40;0.27;;;;;;;16.75;100.00;100309.53;5050135;28;20505;-77
2021/08/29 10:13:56;;;;;;;0.40;0.27;;;;;;;16.66;100.00;100309.13;5056379;28;20485;-78
2021/08/29 10:16:24;;;;;;;0.40;0.30;;;;;;;16.77;100.00;100310.31;5060593;28;20462;-78
2021/08/29 10:18:54;;;;;;;0.40;0.30;;;;;;;16.80;100.00;100307.44;5060696;28;20450;-78
2021/08/29 10:21:24;;;;;;;2.40;2.23;;;;;;;16.80;100.00;100312.81;5038257;28;20978;-78
2021/08/29 10:23:54;;;;;;;0.30;0.20;;;;;;;16.74;100.00;100307.81;5059736;28;20443;-78
2021/08/29 10:26:22;;;;;;;2.23;1.07;;;;;;;16.84;100.00;100309.00;5041464;28;20446;-78
2021/08/29 10:29:07;;;;;;;0.40;0.23;;;;;;;16.80;100.00;100303.91;5039565;28;20472;-78
2021/08/29 10:31:38;;;;;;;1.33;1.33;;;;;;;16.88;100.00;100305.22;5058097;28;20443;-78
2021/08/29 10:34:06;;;;;;;1.07;0.97;;;;;;;16.91;100.00;100308.69;5053484;28;20481;-78
2021/08/29 10:36:35;;;;;;;0.40;0.30;;;;;;;16.88;100.00;100294.50;5039484;28;20454;-78
2021/08/29 10:39:03;;;;;;;2.20;1.33;;;;;;;16.98;100.00;100305.56;5054160;28;20456;-78
2021/08/29 10:41:30;;;;;;;0.30;0.20;;;;;;;16.92;100.00;100313.13;5035701;28;20486;-78
2021/08/29 10:43:57;;;;;;;1.33;1.33;;;;;;;17.07;100.00;100313.13;5058799;28;20512;-78
2021/08/29 10:46:25;;;;;;;0.40;0.20;;;;;;;17.09;100.00;100302.31;5035774;28;20861;-78
2021/08/29 10:48:53;;;;;;;0.40;0.20;;;;;;;17.05;100.00;100311.50;5038573;28;20551;-78
2021/08/29 10:51:25;;;;;;;0.40;0.20;;;;;;;17.18;100.00;100305.38;5054290;28;20482;-78
2021/08/29 10:53:56;;;;;;;0.37;0.20;;;;;;;17.14;100.00;100309.19;5037212;28;20447;-78
2021/08/29 10:56:25;;;;;;;0.60;0.60;;;;;;;17.06;100.00;100311.41;5040163;28;20475;-78
2021/08/29 10:59:08;;;;;;;0.37;0.20;;;;;;;17.09;100.00;100308.53;5036114;28;21039;-78
2021/08/29 11:01:39;;;;;;;0.40;0.33;;;;;;;17.09;100.00;100300.50;5033342;28;20794;-77
2021/08/29 11:04:21;;;;;;;1.03;0.73;;;;;;;17.02;100.00;100298.25;5050347;28;20458;-79
2021/08/29 11:06:51;;;;;;;0.83;0.73;;;;;;;17.12;100.00;100308.38;5034223;28;20454;-78
2021/08/29 11:09:36;;;;;;;0.80;0.73;;;;;;;17.20;100.00;100310.66;5054417;28;20482;-78
2021/08/29 11:12:27;;;;;;;0.70;0.60;;;;;;;17.21;100.00;100306.13;5041704;28;20451;-78
2021/08/29 11:14:59;;;;;;;0.40;0.20;;;;;;;17.26;100.00;100304.06;5039693;28;20463;-78
2021/08/29 11:17:33;;;;;;;0.50;0.50;;;;;;;17.25;100.00;100307.69;5055608;28;20520;-78
2021/08/29 11:20:03;;;;;;;0.40;0.40;;;;;;;17.14;100.00;100298.44;5052903;28;20475;-78
2021/08/29 11:22:41;;;;;;;0.40;0.40;;;;;;;17.34;100.00;100294.63;5056132;28;21069;-78
2021/08/29 11:25:23;;;;;;;0.30;0.20;;;;;;;17.26;100.00;100287.94;5041731;28;20459;-78